sensor_id;sensor_type;location;lat;lon;timestamp;pressure;altitude;pressure_sealevel;temperature;humidity
38225;BME280;24025;48.138;11.428;2023-03-20T10:15:52;95872.06;;;11.60;61.50
38225;BME280;24025;48.138;11.428;2023-03-20T10:18:28;95870.78;;;11.50;61.96
38225;BME280;24025;48.138;11.428;2023-03-20T10:21:25;95866.50;;;11.46;61.80
38225;BME280;24025;48.138;11.428;2023-03-20T10:24:04;95872.16;;;11.67;61.38
38225;BME280;24025;48.138;11.428;2023-03-20T10:26:37;95867.63;;;11.71;61.25
38225;BME280;24025;48.138;11.428;2023-03-20T10:29:31;95862.91;;;11.61;60.48
38225;BME280;24025;48.138;11.428;2023-03-20T10:32:27;95870.53;;;11.85;59.08
38225;BME280;24025;48.138;11.428;2023-03-20T10:40:42;95858.81;;;12.27;58.75
38225;BME280;24025;48.138;11.428;2023-03-20T10:43:27;95871.22;;;12.42;58.26
38225;BME280;24025;48.138;11.428;2023-03-20T10:51:41;95845.06;;;13.03;58.70
38225;BME280;24025;48.138;11.428;2023-03-20T10:54:30;95843.59;;;12.68;58.06
38225;BME280;24025;48.138;11.428;2023-03-20T10:57:05;95843.19;;;12.29;58.21
38225;BME280;24025;48.138;11.428;2023-03-20T10:59:42;95836.09;;;12.44;58.99
38225;BME280;24025;48.138;11.428;2023-03-20T11:02:15;95835.91;;;12.26;59.17
38225;BME280;24025;48.138;11.428;2023-03-20T11:04:47;95843.25;;;12.36;59.18
38225;BME280;24025;48.138;11.428;2023-03-20T11:10:18;95837.75;;;12.56;57.94
38225;BME280;24025;48.138;11.428;2023-03-20T11:12:49;95837.03;;;12.62;57.96
38225;BME280;24025;48.138;11.428;2023-03-20T11:15:40;95832.16;;;12.71;57.80
38225;BME280;24025;48.138;11.428;2023-03-20T11:18:14;95830.41;;;12.86;56.97
38225;BME280;24025;48.138;11.428;2023-03-20T11:20:56;95828.84;;;12.82;56.01
38225;BME280;24025;48.138;11.428;2023-03-20T11:23:32;95830.22;;;13.09;55.76
38225;BME280;24025;48.138;11.428;2023-03-20T11:26:06;95822.47;;;13.48;55.93
38225;BME280;24025;48.138;11.428;2023-03-20T11:28:39;95818.31;;;13.58;54.08
38225;BME280;24025;48.138;11.428;2023-03-20T11:33:49;95819.75;;;13.41;54.98
38225;BME280;24025;48.138;11.428;2023-03-20T11:36:24;95826.25;;;13.37;54.49
38225;BME280;24025;48.138;11.428;2023-03-20T11:44:34;95820.59;;;13.52;53.53
38225;BME280;24025;48.138;11.428;2023-03-20T11:47:18;95818.25;;;13.44;53.33
38225;BME280;24025;48.138;11.428;2023-03-20T11:50:01;95820.59;;;13.52;53.45
38225;BME280;24025;48.138;11.428;2023-03-20T11:52:38;95810.00;;;13.19;53.17
38225;BME280;24025;48.138;11.428;2023-03-20T11:55:26;95816.66;;;13.36;54.14
38225;BME280;24025;48.138;11.428;2023-03-20T11:58:03;95817.91;;;13.01;53.40
38225;BME280;24025;48.138;11.428;2023-03-20T12:00:38;95818.78;;;13.16;53.11
38225;BME280;24025;48.138;11.428;2023-03-20T12:06:16;95821.69;;;12.96;53.47
38225;BME280;24025;48.138;11.428;2023-03-20T12:09:15;95823.91;;;12.87;53.14
38225;BME280;24025;48.138;11.428;2023-03-20T12:20:14;95815.72;;;11.99;55.86
38225;BME280;24025;48.138;11.428;2023-03-20T12:23:01;95820.34;;;12.02;57.08
38225;BME280;24025;48.138;11.428;2023-03-20T12:28:23;95818.03;;;11.74;58.28
38225;BME280;24025;48.138;11.428;2023-03-20T12:34:04;95821.06;;;11.72;59.80
38225;BME280;24025;48.138;11.428;2023-03-20T12:36:43;95815.13;;;11.56;59.25
38225;BME280;24025;48.138;11.428;2023-03-20T12:39:34;95811.28;;;11.53;58.69
38225;BME280;24025;48.138;11.428;2023-03-20T12:50:36;95804.66;;;11.70;56.66
38225;BME280;24025;48.138;11.428;2023-03-20T12:59:07;95810.47;;;12.06;56.37
38225;BME280;24025;48.138;11.428;2023-03-20T13:01:55;95806.91;;;12.28;56.23
38225;BME280;24025;48.138;11.428;2023-03-20T13:07:21;95814.38;;;12.15;57.01
38225;BME280;24025;48.138;11.428;2023-03-20T13:10:07;95819.38;;;12.17;56.71
38225;BME280;24025;48.138;11.428;2023-03-20T13:16:14;95805.06;;;12.36;56.05
38225;BME280;24025;48.138;11.428;2023-03-20T13:19:04;95796.28;;;12.76;55.46
38225;BME280;24025;48.138;11.428;2023-03-20T13:21:46;95800.56;;;12.84;55.50
38225;BME280;24025;48.138;11.428;2023-03-20T13:24:47;95797.41;;;13.19;53.68
38225;BME280;24025;48.138;11.428;2023-03-20T13:27:36;95798.22;;;13.89;51.99
38225;BME280;24025;48.138;11.428;2023-03-20T13:30:20;95789.66;;;14.85;50.50
38225;BME280;24025;48.138;11.428;2023-03-20T13:36:11;95780.63;;;19.14;41.26
38225;BME280;24025;48.138;11.428;2023-03-20T13:38:51;95777.75;;;21.32;35.25
38225;BME280;24025;48.138;11.428;2023-03-20T13:41:25;95772.28;;;22.48;31.96
38225;BME280;24025;48.138;11.428;2023-03-20T13:43:59;95770.31;;;23.94;31.25
38225;BME280;24025;48.138;11.428;2023-03-20T13:46:54;95777.44;;;25.25;28.55
38225;BME280;24025;48.138;11.428;2023-03-20T13:52:23;95756.56;;;26.98;25.46
38225;BME280;24025;48.138;11.428;2023-03-20T13:58:06;95760.00;;;25.13;28.36
38225;BME280;24025;48.138;11.428;2023-03-20T14:00:51;95768.63;;;23.06;29.95
38225;BME280;24025;48.138;11.428;2023-03-20T14:03:36;95754.69;;;21.40;31.57
38225;BME280;24025;48.138;11.428;2023-03-20T14:09:32;95763.22;;;17.76;39.26
38225;BME280;24025;48.138;11.428;2023-03-20T14:12:07;95759.66;;;16.49;42.09
38225;BME280;24025;48.138;11.428;2023-03-20T14:14:48;95763.13;;;15.37;44.79
38225;BME280;24025;48.138;11.428;2023-03-20T14:17:29;95757.44;;;14.99;46.35
38225;BME280;24025;48.138;11.428;2023-03-20T14:20:12;95758.16;;;14.42;47.29
38225;BME280;24025;48.138;11.428;2023-03-20T14:22:49;95754.66;;;14.28;47.67
38225;BME280;24025;48.138;11.428;2023-03-20T14:25:22;95747.34;;;14.10;48.08
38225;BME280;24025;48.138;11.428;2023-03-20T14:28:05;95749.78;;;14.87;46.29
38225;BME280;24025;48.138;11.428;2023-03-20T14:30:45;95756.22;;;15.36;45.25
38225;BME280;24025;48.138;11.428;2023-03-20T14:36:10;95743.25;;;14.73;46.10
38225;BME280;24025;48.138;11.428;2023-03-20T14:44:23;95742.00;;;14.14;47.08
38225;BME280;24025;48.138;11.428;2023-03-20T14:47:15;95747.59;;;13.70;48.04
38225;BME280;24025;48.138;11.428;2023-03-20T14:55:46;95741.59;;;14.05;48.33
38225;BME280;24025;48.138;11.428;2023-03-20T14:58:50;95739.25;;;13.96;48.36
38225;BME280;24025;48.138;11.428;2023-03-20T15:05:01;95745.59;;;13.56;49.08
38225;BME280;24025;48.138;11.428;2023-03-20T15:07:28;95740.63;;;13.58;49.02
38225;BME280;24025;48.138;11.428;2023-03-20T15:10:00;95729.31;;;14.11;48.08
38225;BME280;24025;48.138;11.428;2023-03-20T15:12:36;95738.25;;;14.54;46.57
38225;BME280;24025;48.138;11.428;2023-03-20T15:15:26;95732.09;;;14.57;46.21
38225;BME280;24025;48.138;11.428;2023-03-20T15:18:05;95732.44;;;14.34;47.29
38225;BME280;24025;48.138;11.428;2023-03-20T15:20:38;95737.50;;;14.96;45.60
38225;BME280;24025;48.138;11.428;2023-03-20T15:23:10;95733.63;;;16.24;42.47
38225;BME280;24025;48.138;11.428;2023-03-20T15:25:43;95732.13;;;16.82;41.88
38225;BME280;24025;48.138;11.428;2023-03-20T15:28:19;95721.78;;;17.56;40.37
38225;BME280;24025;48.138;11.428;2023-03-20T15:30:55;95730.03;;;19.14;37.77
38225;BME280;24025;48.138;11.428;2023-03-20T15:33:32;95727.25;;;18.44;37.32
38225;BME280;24025;48.138;11.428;2023-03-20T15:36:15;95728.91;;;16.42;41.29
38225;BME280;24025;48.138;11.428;2023-03-20T15:38:48;95731.31;;;15.32;43.44
38225;BME280;24025;48.138;11.428;2023-03-20T15:41:31;95727.44;;;15.40;43.93
38225;BME280;24025;48.138;11.428;2023-03-20T15:47:11;95735.81;;;15.70;43.46
38225;BME280;24025;48.138;11.428;2023-03-20T15:49:48;95726.19;;;15.76;43.40
38225;BME280;24025;48.138;11.428;2023-03-20T15:52:42;95727.47;;;15.22;44.83
38225;BME280;24025;48.138;11.428;2023-03-20T15:55:28;95725.63;;;14.76;45.50
38225;BME280;24025;48.138;11.428;2023-03-20T15:58:01;95719.47;;;14.79;45.33
38225;BME280;24025;48.138;11.428;2023-03-20T16:00:36;95725.16;;;14.28;47.15
38225;BME280;24025;48.138;11.428;2023-03-20T16:03:13;95727.78;;;14.06;47.58
38225;BME280;24025;48.138;11.428;2023-03-20T16:05:47;95728.25;;;14.44;47.14
38225;BME280;24025;48.138;11.428;2023-03-20T16:08:25;95725.22;;;14.49;46.70
38225;BME280;24025;48.138;11.428;2023-03-20T16:11:06;95730.13;;;14.26;46.98
38225;BME280;24025;48.138;11.428;2023-03-20T16:13:43;95723.53;;;13.91;47.44
38225;BME280;24025;48.138;11.428;2023-03-20T16:16:21;95706.34;;;14.17;47.50
38225;BME280;24025;48.138;11.428;2023-03-20T16:18:54;95710.47;;;13.79;48.23
38225;BME280;24025;48.138;11.428;2023-03-20T16:21:33;95708.25;;;14.06;47.59
38225;BME280;24025;48.138;11.428;2023-03-20T16:24:09;95713.22;;;13.97;47.68
38225;BME280;24025;48.138;11.428;2023-03-20T16:26:50;95708.72;;;13.28;49.70
38225;BME280;24025;48.138;11.428;2023-03-20T16:29:24;95706.69;;;13.14;50.05
38225;BME280;24025;48.138;11.428;2023-03-20T16:32:01;95698.59;;;13.00;50.48
38225;BME280;24025;48.138;11.428;2023-03-20T16:34:36;95697.28;;;12.80;50.96
38225;BME280;24025;48.138;11.428;2023-03-20T16:40:02;95704.16;;;12.73;51.44
38225;BME280;24025;48.138;11.428;2023-03-20T16:42:36;95705.81;;;12.44;52.34
38225;BME280;24025;48.138;11.428;2023-03-20T16:45:19;95710.94;;;12.64;52.08
38225;BME280;24025;48.138;11.428;2023-03-20T16:50:44;95718.00;;;12.38;52.71
38225;BME280;24025;48.138;11.428;2023-03-20T16:53:18;95718.22;;;12.23;52.87
38225;BME280;24025;48.138;11.428;2023-03-20T16:55:54;95728.06;;;12.11;53.38
38225;BME280;24025;48.138;11.428;2023-03-20T16:58:29;95729.03;;;11.96;53.80
38225;BME280;24025;48.138;11.428;2023-03-20T17:01:04;95734.28;;;11.89;54.18
38225;BME280;24025;48.138;11.428;2023-03-20T17:03:45;95733.28;;;11.71;54.69
38225;BME280;24025;48.138;11.428;2023-03-20T17:08:58;95741.44;;;11.51;55.49
38225;BME280;24025;48.138;11.428;2023-03-20T17:11:35;95746.31;;;11.46;55.16
38225;BME280;24025;48.138;11.428;2023-03-20T17:14:07;95747.88;;;11.20;56.63
38225;BME280;24025;48.138;11.428;2023-03-20T17:16:39;95750.56;;;11.20;57.50
38225;BME280;24025;48.138;11.428;2023-03-20T17:19:16;95746.94;;;11.05;57.68
38225;BME280;24025;48.138;11.428;2023-03-20T17:21:48;95745.06;;;11.10;56.96
38225;BME280;24025;48.138;11.428;2023-03-20T17:24:20;95741.94;;;11.04;57.16
38225;BME280;24025;48.138;11.428;2023-03-20T17:26:53;95750.63;;;10.97;58.00
38225;BME280;24025;48.138;11.428;2023-03-20T17:29:28;95745.91;;;10.87;58.67
38225;BME280;24025;48.138;11.428;2023-03-20T17:32:00;95748.88;;;10.82;58.09
38225;BME280;24025;48.138;11.428;2023-03-20T17:34:32;95749.50;;;10.75;59.61
38225;BME280;24025;48.138;11.428;2023-03-20T17:37:04;95752.06;;;10.68;59.71
38225;BME280;24025;48.138;11.428;2023-03-20T17:39:37;95747.44;;;10.65;59.84
38225;BME280;24025;48.138;11.428;2023-03-20T17:42:21;95753.09;;;10.60;59.16
38225;BME280;24025;48.138;11.428;2023-03-20T17:44:54;95745.44;;;10.59;60.22
38225;BME280;24025;48.138;11.428;2023-03-20T17:47:27;95757.59;;;10.56;60.29
38225;BME280;24025;48.138;11.428;2023-03-20T17:49:59;95747.53;;;10.46;60.38
38225;BME280;24025;48.138;11.428;2023-03-20T17:52:30;95752.91;;;10.27;61.21
38225;BME280;24025;48.138;11.428;2023-03-20T17:55:02;95753.94;;;10.22;61.08
38225;BME280;24025;48.138;11.428;2023-03-20T17:57:35;95756.19;;;10.20;61.14
38225;BME280;24025;48.138;11.428;2023-03-20T18:00:13;95756.19;;;10.20;61.13
38225;BME280;24025;48.138;11.428;2023-03-20T18:02:47;95751.63;;;10.20;61.35
38225;BME280;24025;48.138;11.428;2023-03-20T18:05:19;95750.34;;;10.14;61.75
38225;BME280;24025;48.138;11.428;2023-03-20T18:07:51;95751.63;;;10.20;61.47
38225;BME280;24025;48.138;11.428;2023-03-20T18:10:27;95752.06;;;10.23;61.33
38225;BME280;24025;48.138;11.428;2023-03-20T18:13:03;95752.38;;;10.21;61.64
38225;BME280;24025;48.138;11.428;2023-03-20T18:15:36;95755.81;;;10.21;61.26
38225;BME280;24025;48.138;11.428;2023-03-20T18:18:10;95759.19;;;10.18;62.70
38225;BME280;24025;48.138;11.428;2023-03-20T18:20:42;95753.88;;;10.18;61.95
38225;BME280;24025;48.138;11.428;2023-03-20T18:23:15;95750.03;;;10.16;61.86
38225;BME280;24025;48.138;11.428;2023-03-20T18:25:47;95749.59;;;10.14;62.57
38225;BME280;24025;48.138;11.428;2023-03-20T18:28:18;95750.72;;;10.13;62.83
38225;BME280;24025;48.138;11.428;2023-03-20T18:30:53;95746.09;;;10.10;63.24
38225;BME280;24025;48.138;11.428;2023-03-20T18:33:24;95745.25;;;10.06;63.82
38225;BME280;24025;48.138;11.428;2023-03-20T18:35:58;95759.69;;;10.05;62.88
38225;BME280;24025;48.138;11.428;2023-03-20T18:38:29;95760.69;;;9.97;62.77
38225;BME280;24025;48.138;11.428;2023-03-20T18:41:01;95761.13;;;9.99;62.63
38225;BME280;24025;48.138;11.428;2023-03-20T18:43:33;95765.59;;;9.94;62.97
38225;BME280;24025;48.138;11.428;2023-03-20T18:46:04;95764.41;;;9.92;62.98
38225;BME280;24025;48.138;11.428;2023-03-20T18:48:37;95764.00;;;9.90;63.41
38225;BME280;24025;48.138;11.428;2023-03-20T18:51:09;95763.66;;;9.91;63.31
38225;BME280;24025;48.138;11.428;2023-03-20T18:53:42;95763.91;;;9.86;63.20
38225;BME280;24025;48.138;11.428;2023-03-20T18:56:17;95768.06;;;9.84;63.37
38225;BME280;24025;48.138;11.428;2023-03-20T18:58:49;95766.22;;;9.88;62.87
38225;BME280;24025;48.138;11.428;2023-03-20T19:01:20;95771.22;;;9.89;63.30
38225;BME280;24025;48.138;11.428;2023-03-20T19:03:52;95770.16;;;9.94;63.47
38225;BME280;24025;48.138;11.428;2023-03-20T19:06:24;95772.47;;;9.96;63.85
38225;BME280;24025;48.138;11.428;2023-03-20T19:09:02;95774.78;;;9.97;64.31
38225;BME280;24025;48.138;11.428;2023-03-20T19:11:37;95777.78;;;9.96;63.57
38225;BME280;24025;48.138;11.428;2023-03-20T19:14:08;95777.03;;;9.95;64.35
38225;BME280;24025;48.138;11.428;2023-03-20T19:16:40;95784.25;;;9.94;63.62
38225;BME280;24025;48.138;11.428;2023-03-20T19:19:14;95780.44;;;9.96;63.07
38225;BME280;24025;48.138;11.428;2023-03-20T19:21:46;95777.78;;;9.96;63.45
38225;BME280;24025;48.138;11.428;2023-03-20T19:24:19;95777.78;;;9.96;62.89
38225;BME280;24025;48.138;11.428;2023-03-20T19:26:52;95778.84;;;9.91;63.15
38225;BME280;24025;48.138;11.428;2023-03-20T19:29:27;95778.00;;;9.87;63.29
38225;BME280;24025;48.138;11.428;2023-03-20T19:31:58;95774.56;;;9.86;63.80
38225;BME280;24025;48.138;11.428;2023-03-20T19:34:31;95778.97;;;9.79;63.65
38225;BME280;24025;48.138;11.428;2023-03-20T19:37:25;95783.53;;;9.78;63.80
38225;BME280;24025;48.138;11.428;2023-03-20T19:40:01;95777.38;;;9.74;63.89
38225;BME280;24025;48.138;11.428;2023-03-20T19:42:33;95784.09;;;9.68;64.06
38225;BME280;24025;48.138;11.428;2023-03-20T19:45:29;95785.47;;;9.62;64.35
38225;BME280;24025;48.138;11.428;2023-03-20T19:48:21;95779.84;;;9.63;63.85
38225;BME280;24025;48.138;11.428;2023-03-20T19:50:55;95777.50;;;9.62;63.69
38225;BME280;24025;48.138;11.428;2023-03-20T19:53:27;95781.28;;;9.61;65.05
38225;BME280;24025;48.138;11.428;2023-03-20T19:56:02;95777.03;;;9.56;64.81
38225;BME280;24025;48.138;11.428;2023-03-20T19:58:33;95777.09;;;9.60;64.00
38225;BME280;24025;48.138;11.428;2023-03-20T20:01:06;95776.81;;;9.65;64.52
38225;BME280;24025;48.138;11.428;2023-03-20T20:03:47;95779.38;;;9.61;64.55
38225;BME280;24025;48.138;11.428;2023-03-20T20:06:21;95785.44;;;9.58;64.70
38225;BME280;24025;48.138;11.428;2023-03-20T20:09:01;95786.97;;;9.59;64.52
38225;BME280;24025;48.138;11.428;2023-03-20T20:11:33;95781.94;;;9.54;64.24
38225;BME280;24025;48.138;11.428;2023-03-20T20:14:04;95782.59;;;9.51;64.40
38225;BME280;24025;48.138;11.428;2023-03-20T20:16:44;95778.00;;;9.48;64.63
38225;BME280;24025;48.138;11.428;2023-03-20T20:19:18;95784.09;;;9.49;64.74
38225;BME280;24025;48.138;11.428;2023-03-20T20:21:50;95781.78;;;9.47;64.84
38225;BME280;24025;48.138;11.428;2023-03-20T20:24:43;95780.03;;;9.55;64.42
38225;BME280;24025;48.138;11.428;2023-03-20T20:27:15;95779.28;;;9.54;64.65
38225;BME280;24025;48.138;11.428;2023-03-20T20:29:52;95775.53;;;9.59;64.69
38225;BME280;24025;48.138;11.428;2023-03-20T20:32:25;95775.53;;;9.59;64.50
38225;BME280;24025;48.138;11.428;2023-03-20T20:35:00;95777.09;;;9.60;64.32
38225;BME280;24025;48.138;11.428;2023-03-20T20:37:52;95774.00;;;9.58;64.44
38225;BME280;24025;48.138;11.428;2023-03-20T20:40:46;95778.56;;;9.57;64.81
38225;BME280;24025;48.138;11.428;2023-03-20T20:43:19;95785.00;;;9.56;64.79
38225;BME280;24025;48.138;11.428;2023-03-20T20:46:11;95781.69;;;9.44;64.58
38225;BME280;24025;48.138;11.428;2023-03-20T20:48:43;95783.50;;;9.40;64.83
38225;BME280;24025;48.138;11.428;2023-03-20T20:51:15;95777.41;;;9.39;65.32
38225;BME280;24025;48.138;11.428;2023-03-20T20:53:47;95783.41;;;9.36;65.04
38225;BME280;24025;48.138;11.428;2023-03-20T20:56:18;95776.91;;;9.33;65.39
38225;BME280;24025;48.138;11.428;2023-03-20T20:58:52;95784.53;;;9.35;65.19
38225;BME280;24025;48.138;11.428;2023-03-20T21:01:25;95781.81;;;9.31;65.40
38225;BME280;24025;48.138;11.428;2023-03-20T21:03:57;95785.06;;;9.25;65.46
38225;BME280;24025;48.138;11.428;2023-03-20T21:06:32;95785.44;;;9.23;65.67
38225;BME280;24025;48.138;11.428;2023-03-20T21:09:26;95787.56;;;9.18;66.23
38225;BME280;24025;48.138;11.428;2023-03-20T21:11:58;95785.63;;;9.15;65.82
38225;BME280;24025;48.138;11.428;2023-03-20T21:14:31;95784.00;;;9.10;66.77
38225;BME280;24025;48.138;11.428;2023-03-20T21:17:04;95786.22;;;9.08;66.76
38225;BME280;24025;48.138;11.428;2023-03-20T21:19:40;95789.84;;;9.00;67.31
38225;BME280;24025;48.138;11.428;2023-03-20T21:22:12;95785.28;;;9.00;67.07
38225;BME280;24025;48.138;11.428;2023-03-20T21:24:46;95790.94;;;8.99;67.18
38225;BME280;24025;48.138;11.428;2023-03-20T21:27:19;95784.63;;;8.88;67.23
38225;BME280;24025;48.138;11.428;2023-03-20T21:29:53;95792.19;;;8.86;67.55
38225;BME280;24025;48.138;11.428;2023-03-20T21:32:26;95793.38;;;8.88;67.60
38225;BME280;24025;48.138;11.428;2023-03-20T21:35:03;95785.97;;;8.82;67.77
38225;BME280;24025;48.138;11.428;2023-03-20T21:37:39;95781.78;;;8.80;67.82
38225;BME280;24025;48.138;11.428;2023-03-20T21:40:30;95783.69;;;8.80;67.54
38225;BME280;24025;48.138;11.428;2023-03-20T21:43:02;95782.84;;;8.76;67.94
38225;BME280;24025;48.138;11.428;2023-03-20T21:45:35;95782.31;;;8.70;68.28
38225;BME280;24025;48.138;11.428;2023-03-20T21:48:27;95776.16;;;8.66;68.49
38225;BME280;24025;48.138;11.428;2023-03-20T21:51:18;95780.34;;;8.67;68.30
38225;BME280;24025;48.138;11.428;2023-03-20T21:54:10;95781.47;;;8.66;68.18
38225;BME280;24025;48.138;11.428;2023-03-20T21:57:02;95781.28;;;8.59;69.26
38225;BME280;24025;48.138;11.428;2023-03-20T21:59:53;95784.44;;;8.65;68.54
38225;BME280;24025;48.138;11.428;2023-03-20T22:02:47;95784.72;;;8.60;68.25
38225;BME280;24025;48.138;11.428;2023-03-20T22:05:19;95781.34;;;8.63;68.37
38225;BME280;24025;48.138;11.428;2023-03-20T22:08:11;95785.06;;;8.58;68.47
38225;BME280;24025;48.138;11.428;2023-03-20T22:11:04;95779.63;;;8.55;68.70
38225;BME280;24025;48.138;11.428;2023-03-20T22:13:56;95779.47;;;8.47;69.27
38225;BME280;24025;48.138;11.428;2023-03-20T22:16:48;95785.22;;;8.49;69.32
38225;BME280;24025;48.138;11.428;2023-03-20T22:19:39;95786.06;;;8.54;68.53
38225;BME280;24025;48.138;11.428;2023-03-20T22:22:31;95784.53;;;8.52;68.66
38225;BME280;24025;48.138;11.428;2023-03-20T22:25:23;95776.38;;;8.45;69.36
38225;BME280;24025;48.138;11.428;2023-03-20T22:28:14;95777.16;;;8.46;69.56
38225;BME280;24025;48.138;11.428;2023-03-20T22:31:08;95782.88;;;8.48;68.84
38225;BME280;24025;48.138;11.428;2023-03-20T22:34:00;95789.66;;;8.45;69.40
38225;BME280;24025;48.138;11.428;2023-03-20T22:36:52;95787.97;;;8.53;68.75
38225;BME280;24025;48.138;11.428;2023-03-20T22:39:44;95789.00;;;8.48;69.41
38225;BME280;24025;48.138;11.428;2023-03-20T22:42:35;95784.19;;;8.54;68.95
38225;BME280;24025;48.138;11.428;2023-03-20T22:45:27;95783.50;;;8.57;68.85
38225;BME280;24025;48.138;11.428;2023-03-20T22:48:13;95777.75;;;8.55;68.90
38225;BME280;24025;48.138;11.428;2023-03-20T22:50:48;95780.84;;;8.57;69.34
38225;BME280;24025;48.138;11.428;2023-03-20T22:53:20;95786.06;;;8.54;69.64
38225;BME280;24025;48.138;11.428;2023-03-20T22:55:51;95779.91;;;8.49;69.30
38225;BME280;24025;48.138;11.428;2023-03-20T22:58:24;95768.16;;;8.50;69.26
38225;BME280;24025;48.138;11.428;2023-03-20T23:00:56;95771.66;;;8.55;69.42
38225;BME280;24025;48.138;11.428;2023-03-20T23:03:28;95772.78;;;8.54;69.10
38225;BME280;24025;48.138;11.428;2023-03-20T23:06:20;95772.09;;;8.57;69.35
38225;BME280;24025;48.138;11.428;2023-03-20T23:08:53;95773.56;;;8.54;68.92
38225;BME280;24025;48.138;11.428;2023-03-20T23:11:38;95776.31;;;8.58;68.36
38225;BME280;24025;48.138;11.428;2023-03-20T23:14:10;95772.09;;;8.57;68.61
38225;BME280;24025;48.138;11.428;2023-03-20T23:16:52;95766.53;;;8.62;68.50
38225;BME280;24025;48.138;11.428;2023-03-20T23:19:24;95764.13;;;8.57;68.50
38225;BME280;24025;48.138;11.428;2023-03-20T23:21:58;95764.03;;;8.53;69.09
38225;BME280;24025;48.138;11.428;2023-03-20T23:24:30;95757.59;;;8.54;68.86
38225;BME280;24025;48.138;11.428;2023-03-20T23:27:01;95756.84;;;8.54;68.87
38225;BME280;24025;48.138;11.428;2023-03-20T23:29:33;95757.59;;;8.54;68.55
38225;BME280;24025;48.138;11.428;2023-03-20T23:32:05;95763.97;;;8.49;68.96
38225;BME280;24025;48.138;11.428;2023-03-20T23:34:36;95755.47;;;8.44;69.39
38225;BME280;24025;48.138;11.428;2023-03-20T23:37:08;95758.13;;;8.44;69.35
38225;BME280;24025;48.138;11.428;2023-03-20T23:39:40;95760.09;;;8.47;69.72
38225;BME280;24025;48.138;11.428;2023-03-20T23:42:12;95756.94;;;8.41;70.00
38225;BME280;24025;48.138;11.428;2023-03-20T23:44:59;95750.91;;;8.44;69.91
38225;BME280;24025;48.138;11.428;2023-03-20T23:47:49;95753.16;;;8.42;70.26
38225;BME280;24025;48.138;11.428;2023-03-20T23:50:21;95748.97;;;8.41;70.16
38225;BME280;24025;48.138;11.428;2023-03-20T23:53:14;95745.25;;;8.46;69.77
38225;BME280;24025;48.138;11.428;2023-03-20T23:55:53;95744.13;;;8.47;69.85
38225;BME280;24025;48.138;11.428;2023-03-20T23:58:26;95736.94;;;8.47;69.48
